»·PEaware :: N754DW KAPA-KAEG

N754DW :: KAPA-KAEG

FLIGHT INFORMATION

Flight Status: Arrived
Operator: Privately registered:
United States
More flights under this callsign
Pilot: David W. (32310)
Aircraft: BEECH AIRCRAFT A90-E90 KING AIR
(BE9L)
More flights by this aircraft type
Origin: KAPA Centennial
United States
Destination: KAEG Double Eagle Ii
United States
More flights between these airports :: More routes between these airports
Route: +PIKES2 PUB V611 FTI FRIHO4
File this flight plan on PilotEdge
Remarks:
Altitude:
(Current/Filed)
20,000ft
Speed:
(Current/Filed)
240kts
Departed: 03-Nov-20 11:51 AM
Arrived: 03-Nov-20 01:36 PM
Distance/Time
Traveled:
281nm/1:45
Distance/Time
To Go:
Arrived

Flight Plot

Page will automatically refresh every two minutes.

Flight plan parsing failed; only flown route is shown


Map Options




Map Legend


Flown Route
Filed Route
Departure Airport
Arrival Airport
Navaid (VOR, NDB)
Fix

Horizontal Profiles

Position Reports

Time Latitude Longitude Heading Altitude Ground
Speed
03-Nov-20 11:36 39.581983 -104.848813 90 5887ft 0kts
03-Nov-20 11:37 39.581983 -104.848813 90 5887ft 0kts
03-Nov-20 11:38 39.581983 -104.848813 90 5887ft 0kts
03-Nov-20 11:40 39.581983 -104.848813 90 5887ft 0kts
03-Nov-20 11:41 39.581983 -104.848813 90 5887ft 0kts
03-Nov-20 11:42 39.581983 -104.848813 90 5887ft 0kts
03-Nov-20 11:43 39.581983 -104.848813 90 5887ft 0kts
03-Nov-20 11:44 39.581983 -104.848813 90 5887ft 0kts
03-Nov-20 11:45 39.581983 -104.848810 88 5887ft 0kts
03-Nov-20 11:46 39.582378 -104.848767 306 5887ft 4kts
03-Nov-20 11:47 39.583415 -104.850031 358 5887ft 9kts
03-Nov-20 11:48 39.584115 -104.850359 278 5887ft 0kts
03-Nov-20 11:49 39.584115 -104.850359 278 5887ft 0kts
03-Nov-20 11:50 39.584115 -104.850364 278 5887ft 0kts
03-Nov-20 11:51 39.577545 -104.851204 176 5887ft 92kts
03-Nov-20 11:52 39.545447 -104.847935 172 6712ft 127kts
03-Nov-20 11:53 39.518999 -104.815745 130 8014ft 139kts
03-Nov-20 11:54 39.486537 -104.763308 130 8030ft 197kts
03-Nov-20 11:55 39.449787 -104.704315 130 8942ft 178kts
03-Nov-20 11:56 39.414176 -104.657779 163 10024ft 163kts
03-Nov-20 11:56 39.375146 -104.639827 159 10944ft 158kts
03-Nov-20 11:58 39.322438 -104.612539 157 12246ft 154kts
03-Nov-20 11:58 39.285775 -104.593216 157 13138ft 153kts
03-Nov-20 12:00 39.234255 -104.566043 157 14167ft 157kts
03-Nov-20 12:00 39.198140 -104.547011 157 14880ft 156kts
03-Nov-20 12:02 39.149024 -104.521164 157 15704ft 160kts
03-Nov-20 12:02 39.111753 -104.501574 158 16238ft 163kts
03-Nov-20 12:03 39.066719 -104.477935 158 16875ft 163kts
03-Nov-20 12:04 39.022147 -104.454565 158 17506ft 161kts
03-Nov-20 12:05 38.978133 -104.431517 159 18137ft 158kts
03-Nov-20 12:06 38.935613 -104.409282 160 18755ft 155kts
03-Nov-20 12:07 38.892154 -104.400436 183 19390ft 148kts
03-Nov-20 12:08 38.850852 -104.402259 183 20010ft 144kts
03-Nov-20 12:09 38.809716 -104.404258 183 20308ft 159kts
03-Nov-20 12:10 38.762545 -104.406578 183 20305ft 178kts
03-Nov-20 12:11 38.711942 -104.409060 183 20301ft 185kts
03-Nov-20 12:12 38.659903 -104.411611 183 20267ft 188kts
03-Nov-20 12:13 38.606910 -104.414205 183 20232ft 189kts
03-Nov-20 12:14 38.553437 -104.416820 183 20198ft 189kts
03-Nov-20 12:15 38.500014 -104.419429 183 20195ft 188kts
03-Nov-20 12:16 38.446945 -104.422019 183 20194ft 192kts
03-Nov-20 12:17 38.392291 -104.424681 183 20192ft 193kts
03-Nov-20 12:18 38.337397 -104.427350 183 20192ft 193kts
03-Nov-20 12:19 38.280167 -104.433474 192 20192ft 192kts
03-Nov-20 12:20 38.223758 -104.449006 192 20191ft 193kts
03-Nov-20 12:21 38.165963 -104.464992 192 20191ft 193kts
03-Nov-20 12:22 38.107723 -104.481086 192 20191ft 192kts
03-Nov-20 12:23 38.049480 -104.497155 192 20172ft 193kts
03-Nov-20 12:24 37.991457 -104.513137 192 20172ft 193kts
03-Nov-20 12:25 37.933843 -104.528982 192 20172ft 192kts
03-Nov-20 12:26 37.881432 -104.543376 192 20181ft 192kts
03-Nov-20 12:27 37.828991 -104.557756 192 20187ft 193kts
03-Nov-20 12:28 37.776494 -104.572129 192 20191ft 193kts
03-Nov-20 12:29 37.723894 -104.586510 192 20199ft 193kts
03-Nov-20 12:30 37.671321 -104.600862 192 20213ft 193kts
03-Nov-20 12:31 37.616246 -104.615874 192 20230ft 192kts
03-Nov-20 12:32 37.562427 -104.630523 192 20238ft 193kts
03-Nov-20 12:33 37.508374 -104.645214 192 20238ft 193kts
03-Nov-20 12:34 37.453951 -104.659983 192 20238ft 193kts
03-Nov-20 12:35 37.398472 -104.675016 192 20237ft 193kts
03-Nov-20 12:36 37.341647 -104.690390 192 20237ft 193kts
03-Nov-20 12:37 37.285985 -104.705427 192 20237ft 193kts
03-Nov-20 12:38 37.229336 -104.720706 192 20239ft 193kts
03-Nov-20 12:39 37.173298 -104.735798 192 20243ft 193kts
03-Nov-20 12:40 37.115528 -104.751332 192 20249ft 192kts
03-Nov-20 12:41 37.056887 -104.767051 194 20255ft 192kts
03-Nov-20 12:42 36.998851 -104.782602 196 20261ft 191kts
03-Nov-20 12:43 36.940338 -104.798279 197 20264ft 192kts
03-Nov-20 12:44 36.885906 -104.812838 197 20267ft 193kts
03-Nov-20 12:45 36.827118 -104.828527 197 20267ft 194kts
03-Nov-20 12:46 36.771179 -104.843431 197 20266ft 194kts
03-Nov-20 12:47 36.712597 -104.859014 197 20266ft 194kts
03-Nov-20 12:48 36.653342 -104.874752 197 20266ft 194kts
03-Nov-20 12:49 36.595440 -104.890102 197 20301ft 193kts
03-Nov-20 12:50 36.536925 -104.905597 197 20353ft 193kts
03-Nov-20 12:51 36.478042 -104.921165 197 20398ft 194kts
03-Nov-20 12:52 36.419028 -104.936744 197 20402ft 196kts
03-Nov-20 12:53 36.359073 -104.952544 197 20402ft 198kts
03-Nov-20 12:54 36.298594 -104.968457 197 20402ft 199kts
03-Nov-20 12:55 36.238377 -104.984276 197 20402ft 200kts
03-Nov-20 12:56 36.177031 -105.000367 197 20402ft 202kts
03-Nov-20 12:57 36.115801 -105.016403 197 20381ft 203kts
03-Nov-20 12:58 36.053994 -105.032561 197 20346ft 205kts
03-Nov-20 12:59 35.992317 -105.048661 197 20312ft 206kts
03-Nov-20 13:00 35.930724 -105.064712 197 20311ft 207kts
03-Nov-20 13:01 35.868939 -105.080789 197 20310ft 207kts
03-Nov-20 13:02 35.807254 -105.096814 197 20310ft 208kts
03-Nov-20 13:03 35.745743 -105.112769 197 20310ft 209kts
03-Nov-20 13:04 35.683634 -105.128851 196 20310ft 210kts
03-Nov-20 13:05 35.656655 -105.181406 267 20143ft 199kts
03-Nov-20 13:06 35.653518 -105.257842 269 19602ft 211kts
03-Nov-20 13:07 35.650754 -105.337116 269 19051ft 215kts
03-Nov-20 13:08 35.647950 -105.417357 269 18498ft 217kts
03-Nov-20 13:09 35.645055 -105.498718 269 17939ft 218kts
03-Nov-20 13:10 35.642116 -105.579779 269 17384ft 219kts
03-Nov-20 13:11 35.639165 -105.659691 268 16840ft 220kts
03-Nov-20 13:12 35.636144 -105.740121 268 16311ft 221kts
03-Nov-20 13:13 35.633069 -105.820514 268 15782ft 222kts
03-Nov-20 13:14 35.629927 -105.901228 268 15251ft 222kts
03-Nov-20 13:15 35.626899 -105.977591 268 15026ft 214kts
03-Nov-20 13:16 35.623810 -106.054343 268 15026ft 208kts
03-Nov-20 13:17 35.620650 -106.131689 269 15029ft 206kts
03-Nov-20 13:18 35.617462 -106.208496 269 15035ft 206kts
03-Nov-20 13:19 35.614260 -106.284512 269 15039ft 206kts
03-Nov-20 13:20 35.610895 -106.363152 269 15042ft 206kts
03-Nov-20 13:21 35.607427 -106.443007 269 15043ft 206kts
03-Nov-20 13:22 35.603881 -106.523402 269 15044ft 206kts
03-Nov-20 13:23 35.580924 -106.588493 204 15015ft 221kts
03-Nov-20 13:24 35.514364 -106.617063 202 14999ft 222kts
03-Nov-20 13:25 35.450243 -106.644355 202 15000ft 221kts
03-Nov-20 13:26 35.384642 -106.661082 149 14974ft 231kts
03-Nov-20 13:27 35.403120 -106.615599 355 13847ft 191kts
03-Nov-20 13:28 35.420521 -106.652414 205 12725ft 197kts
03-Nov-20 13:29 35.363893 -106.678774 176 11601ft 196kts
03-Nov-20 13:31 35.310374 -106.645384 171 10263ft 200kts
03-Nov-20 13:32 35.253708 -106.664758 217 8702ft 195kts
03-Nov-20 13:33 35.213164 -106.714655 227 7507ft 176kts
03-Nov-20 13:34 35.181333 -106.755126 226 6643ft 119kts
03-Nov-20 13:35 35.156686 -106.786687 225 5943ft 115kts
03-Nov-20 13:36 35.146349 -106.800446 315 5821ft 13kts
03-Nov-20 13:37 35.146769 -106.800824 18 5822ft 4kts
03-Nov-20 13:38 35.148725 -106.798456 46 5817ft 12kts
03-Nov-20 13:39 35.150965 -106.798408 321 5817ft 6kts
03-Nov-20 13:40 35.152283 -106.798209 128 5816ft 0kts
03-Nov-20 13:41 35.152283 -106.798209 128 5816ft 0kts

Navigation Log

Ident Type
Flight plan parsing failed, navigation log unavailable